sensor_id;sensor_type;location;lat;lon;timestamp;temperature;humidity
45489;DHT22;31236;55.026;61.042;2022-09-09T00:04:31;5.40;89.20
45489;DHT22;31236;55.026;61.042;2022-09-09T00:37:14;5.20;89.20
45489;DHT22;31236;55.026;61.042;2022-09-09T00:39:46;5.20;89.10
45489;DHT22;31236;55.026;61.042;2022-09-09T01:01:23;4.90;88.70
45489;DHT22;31236;55.026;61.042;2022-09-09T01:30:49;5.00;89.70
45489;DHT22;31236;55.026;61.042;2022-09-09T01:33:20;5.10;89.80
45489;DHT22;31236;55.026;61.042;2022-09-09T01:38:58;5.30;90.00
45489;DHT22;31236;55.026;61.042;2022-09-09T01:41:28;5.40;89.90
45489;DHT22;31236;55.026;61.042;2022-09-09T01:43:57;5.50;89.90
45489;DHT22;31236;55.026;61.042;2022-09-09T01:46:27;5.50;90.00
45489;DHT22;31236;55.026;61.042;2022-09-09T01:52:06;5.60;90.00
45489;DHT22;31236;55.026;61.042;2022-09-09T01:57:10;5.70;90.10
45489;DHT22;31236;55.026;61.042;2022-09-09T02:11:55;6.00;90.10
45489;DHT22;31236;55.026;61.042;2022-09-09T02:14:23;5.90;89.90
45489;DHT22;31236;55.026;61.042;2022-09-09T02:16:54;6.00;90.00
45489;DHT22;31236;55.026;61.042;2022-09-09T02:19:24;6.00;90.40
45489;DHT22;31236;55.026;61.042;2022-09-09T02:21:54;6.00;90.20
45489;DHT22;31236;55.026;61.042;2022-09-09T02:24:24;6.00;90.30
45489;DHT22;31236;55.026;61.042;2022-09-09T02:26:55;6.00;90.40
45489;DHT22;31236;55.026;61.042;2022-09-09T02:32:35;5.90;90.80
45489;DHT22;31236;55.026;61.042;2022-09-09T02:35:06;6.00;90.50
45489;DHT22;31236;55.026;61.042;2022-09-09T02:37:38;6.00;90.60
45489;DHT22;31236;55.026;61.042;2022-09-09T02:43:18;6.00;90.70
45489;DHT22;31236;55.026;61.042;2022-09-09T03:01:30;6.30;90.70
45489;DHT22;31236;55.026;61.042;2022-09-09T03:03:59;6.40;90.80
45489;DHT22;31236;55.026;61.042;2022-09-09T03:06:29;6.40;90.80
45489;DHT22;31236;55.026;61.042;2022-09-09T03:08:58;6.50;90.80
45489;DHT22;31236;55.026;61.042;2022-09-09T03:14:38;6.60;90.70
45489;DHT22;31236;55.026;61.042;2022-09-09T03:31:57;6.90;90.70
45489;DHT22;31236;55.026;61.042;2022-09-09T03:34:27;6.90;90.70
45489;DHT22;31236;55.026;61.042;2022-09-09T03:36:56;7.00;90.80
45489;DHT22;31236;55.026;61.042;2022-09-09T03:39:25;7.00;90.80
45489;DHT22;31236;55.026;61.042;2022-09-09T03:44:48;7.10;90.90
45489;DHT22;31236;55.026;61.042;2022-09-09T03:47:17;7.20;90.70
45489;DHT22;31236;55.026;61.042;2022-09-09T03:49:48;7.30;90.80
45489;DHT22;31236;55.026;61.042;2022-09-09T03:52:17;7.40;90.80
45489;DHT22;31236;55.026;61.042;2022-09-09T03:54:48;7.50;90.80
45489;DHT22;31236;55.026;61.042;2022-09-09T03:57:17;7.50;90.70
45489;DHT22;31236;55.026;61.042;2022-09-09T03:59:48;7.60;90.70
45489;DHT22;31236;55.026;61.042;2022-09-09T04:02:50;7.60;90.70
45489;DHT22;31236;55.026;61.042;2022-09-09T04:05:16;7.70;90.80
45489;DHT22;31236;55.026;61.042;2022-09-09T04:07:46;7.70;90.70
45489;DHT22;31236;55.026;61.042;2022-09-09T04:10:15;7.80;90.80
45489;DHT22;31236;55.026;61.042;2022-09-09T04:12:45;7.80;90.80
45489;DHT22;31236;55.026;61.042;2022-09-09T04:15:14;7.90;90.80
45489;DHT22;31236;55.026;61.042;2022-09-09T04:17:44;8.00;90.80
45489;DHT22;31236;55.026;61.042;2022-09-09T04:20:13;8.10;90.80
45489;DHT22;31236;55.026;61.042;2022-09-09T04:22:43;8.10;90.70
45489;DHT22;31236;55.026;61.042;2022-09-09T04:25:12;8.20;90.80
45489;DHT22;31236;55.026;61.042;2022-09-09T04:27:42;8.20;90.80
45489;DHT22;31236;55.026;61.042;2022-09-09T04:30:11;8.30;90.80
45489;DHT22;31236;55.026;61.042;2022-09-09T04:32:41;8.40;90.80
45489;DHT22;31236;55.026;61.042;2022-09-09T04:35:10;8.40;90.70
45489;DHT22;31236;55.026;61.042;2022-09-09T04:37:40;8.50;90.70
45489;DHT22;31236;55.026;61.042;2022-09-09T04:42:40;8.50;90.60
45489;DHT22;31236;55.026;61.042;2022-09-09T04:45:10;8.60;90.60
45489;DHT22;31236;55.026;61.042;2022-09-09T04:47:40;8.70;90.60
45489;DHT22;31236;55.026;61.042;2022-09-09T04:50:10;8.80;90.40
45489;DHT22;31236;55.026;61.042;2022-09-09T04:52:39;9.00;90.30
45489;DHT22;31236;55.026;61.042;2022-09-09T04:55:08;9.00;90.10
45489;DHT22;31236;55.026;61.042;2022-09-09T04:57:39;9.10;89.90
45489;DHT22;31236;55.026;61.042;2022-09-09T05:05:11;9.20;89.70
45489;DHT22;31236;55.026;61.042;2022-09-09T05:07:41;9.30;89.50
45489;DHT22;31236;55.026;61.042;2022-09-09T05:10:10;9.40;90.00
45489;DHT22;31236;55.026;61.042;2022-09-09T05:12:40;9.60;89.40
45489;DHT22;31236;55.026;61.042;2022-09-09T05:15:10;9.90;89.00
45489;DHT22;31236;55.026;61.042;2022-09-09T05:17:39;10.20;87.80
45489;DHT22;31236;55.026;61.042;2022-09-09T05:20:09;10.30;86.50
45489;DHT22;31236;55.026;61.042;2022-09-09T05:22:38;10.40;85.90
45489;DHT22;31236;55.026;61.042;2022-09-09T05:25:07;10.60;86.10
45489;DHT22;31236;55.026;61.042;2022-09-09T05:27:38;10.80;86.10
45489;DHT22;31236;55.026;61.042;2022-09-09T05:30:08;10.90;85.70
45489;DHT22;31236;55.026;61.042;2022-09-09T05:32:37;10.90;84.70
45489;DHT22;31236;55.026;61.042;2022-09-09T05:35:06;11.00;84.70
45489;DHT22;31236;55.026;61.042;2022-09-09T05:37:36;11.00;85.00
45489;DHT22;31236;55.026;61.042;2022-09-09T05:40:06;10.90;85.10
45489;DHT22;31236;55.026;61.042;2022-09-09T05:42:36;11.00;85.30
45489;DHT22;31236;55.026;61.042;2022-09-09T05:45:06;11.10;85.40
45489;DHT22;31236;55.026;61.042;2022-09-09T05:47:35;11.20;85.30
45489;DHT22;31236;55.026;61.042;2022-09-09T05:50:05;11.20;84.90
45489;DHT22;31236;55.026;61.042;2022-09-09T05:52:34;11.30;83.40
45489;DHT22;31236;55.026;61.042;2022-09-09T05:55:03;11.30;83.20
45489;DHT22;31236;55.026;61.042;2022-09-09T05:57:32;11.40;82.70
45489;DHT22;31236;55.026;61.042;2022-09-09T06:00:02;11.40;80.70
45489;DHT22;31236;55.026;61.042;2022-09-09T06:02:31;11.40;80.70
45489;DHT22;31236;55.026;61.042;2022-09-09T06:05:02;11.50;80.50
45489;DHT22;31236;55.026;61.042;2022-09-09T06:10:22;11.60;81.40
45489;DHT22;31236;55.026;61.042;2022-09-09T06:12:52;11.80;81.30
45489;DHT22;31236;55.026;61.042;2022-09-09T06:15:21;12.00;81.30
45489;DHT22;31236;55.026;61.042;2022-09-09T06:20:39;12.50;81.00
45489;DHT22;31236;55.026;61.042;2022-09-09T06:23:09;12.70;78.60
45489;DHT22;31236;55.026;61.042;2022-09-09T06:25:38;12.80;76.30
45489;DHT22;31236;55.026;61.042;2022-09-09T06:28:07;12.90;76.40
45489;DHT22;31236;55.026;61.042;2022-09-09T06:30:36;12.90;76.80
45489;DHT22;31236;55.026;61.042;2022-09-09T06:33:07;13.10;77.30
45489;DHT22;31236;55.026;61.042;2022-09-09T06:35:36;13.10;74.10
45489;DHT22;31236;55.026;61.042;2022-09-09T06:38:05;13.20;73.20
45489;DHT22;31236;55.026;61.042;2022-09-09T06:40:35;13.10;73.70
45489;DHT22;31236;55.026;61.042;2022-09-09T06:43:04;13.00;74.30
45489;DHT22;31236;55.026;61.042;2022-09-09T06:45:33;12.90;75.00
45489;DHT22;31236;55.026;61.042;2022-09-09T06:48:03;12.90;75.40
45489;DHT22;31236;55.026;61.042;2022-09-09T06:50:32;12.80;73.00
45489;DHT22;31236;55.026;61.042;2022-09-09T06:53:01;12.80;73.30
45489;DHT22;31236;55.026;61.042;2022-09-09T06:55:30;12.80;73.20
45489;DHT22;31236;55.026;61.042;2022-09-09T06:58:00;13.00;70.90
45489;DHT22;31236;55.026;61.042;2022-09-09T07:00:29;13.10;70.30
45489;DHT22;31236;55.026;61.042;2022-09-09T07:02:59;12.90;71.30
45489;DHT22;31236;55.026;61.042;2022-09-09T07:05:28;12.90;72.30
45489;DHT22;31236;55.026;61.042;2022-09-09T07:07:57;12.80;71.70
45489;DHT22;31236;55.026;61.042;2022-09-09T07:10:27;12.70;71.60
45489;DHT22;31236;55.026;61.042;2022-09-09T07:12:56;12.60;72.10
45489;DHT22;31236;55.026;61.042;2022-09-09T07:15:26;12.60;72.70
45489;DHT22;31236;55.026;61.042;2022-09-09T07:17:55;12.60;73.20
45489;DHT22;31236;55.026;61.042;2022-09-09T07:20:26;12.50;72.60
45489;DHT22;31236;55.026;61.042;2022-09-09T07:22:56;12.50;73.10
45489;DHT22;31236;55.026;61.042;2022-09-09T07:25:25;12.50;73.30
45489;DHT22;31236;55.026;61.042;2022-09-09T07:27:56;12.50;73.60
45489;DHT22;31236;55.026;61.042;2022-09-09T07:30:25;12.50;73.50
45489;DHT22;31236;55.026;61.042;2022-09-09T07:35:26;12.70;73.80
45489;DHT22;31236;55.026;61.042;2022-09-09T07:37:55;12.80;73.90
45489;DHT22;31236;55.026;61.042;2022-09-09T07:40:24;13.00;73.90
45489;DHT22;31236;55.026;61.042;2022-09-09T07:42:53;13.10;73.20
45489;DHT22;31236;55.026;61.042;2022-09-09T07:45:23;13.20;73.10
45489;DHT22;31236;55.026;61.042;2022-09-09T07:47:54;13.20;72.50
45489;DHT22;31236;55.026;61.042;2022-09-09T07:50:24;13.10;71.40
45489;DHT22;31236;55.026;61.042;2022-09-09T07:52:54;13.10;71.80
45489;DHT22;31236;55.026;61.042;2022-09-09T07:55:23;13.00;70.50
45489;DHT22;31236;55.026;61.042;2022-09-09T07:57:53;13.00;71.10
45489;DHT22;31236;55.026;61.042;2022-09-09T08:00:22;12.90;71.70
45489;DHT22;31236;55.026;61.042;2022-09-09T08:02:51;12.90;71.70
45489;DHT22;31236;55.026;61.042;2022-09-09T08:05:21;12.90;71.40
45489;DHT22;31236;55.026;61.042;2022-09-09T08:07:50;12.90;71.50
45489;DHT22;31236;55.026;61.042;2022-09-09T08:10:20;12.80;71.30
45489;DHT22;31236;55.026;61.042;2022-09-09T08:12:49;12.80;71.00
45489;DHT22;31236;55.026;61.042;2022-09-09T08:15:18;12.80;70.80
45489;DHT22;31236;55.026;61.042;2022-09-09T08:17:48;12.90;71.30
45489;DHT22;31236;55.026;61.042;2022-09-09T08:20:17;13.00;71.40
45489;DHT22;31236;55.026;61.042;2022-09-09T08:22:46;13.00;71.60
45489;DHT22;31236;55.026;61.042;2022-09-09T08:25:16;13.00;71.20
45489;DHT22;31236;55.026;61.042;2022-09-09T08:27:46;12.90;71.40
45489;DHT22;31236;55.026;61.042;2022-09-09T08:30:15;12.80;71.70
45489;DHT22;31236;55.026;61.042;2022-09-09T08:32:44;12.90;71.80
45489;DHT22;31236;55.026;61.042;2022-09-09T08:35:13;12.90;71.70
45489;DHT22;31236;55.026;61.042;2022-09-09T08:37:44;12.80;71.70
45489;DHT22;31236;55.026;61.042;2022-09-09T08:40:17;12.90;71.70
45489;DHT22;31236;55.026;61.042;2022-09-09T08:43:15;13.00;71.80
45489;DHT22;31236;55.026;61.042;2022-09-09T08:45:19;13.10;70.80
45489;DHT22;31236;55.026;61.042;2022-09-09T08:50:34;13.40;70.60
45489;DHT22;31236;55.026;61.042;2022-09-09T09:12:50;13.30;70.40
45489;DHT22;31236;55.026;61.042;2022-09-09T09:15:39;13.20;70.50
45489;DHT22;31236;55.026;61.042;2022-09-09T09:18:10;13.10;69.90
45489;DHT22;31236;55.026;61.042;2022-09-09T09:23:31;13.10;70.40
45489;DHT22;31236;55.026;61.042;2022-09-09T09:26:30;13.10;70.60
45489;DHT22;31236;55.026;61.042;2022-09-09T09:28:29;13.00;71.40
45489;DHT22;31236;55.026;61.042;2022-09-09T09:33:48;12.80;72.20
45489;DHT22;31236;55.026;61.042;2022-09-09T09:36:20;12.60;73.50
45489;DHT22;31236;55.026;61.042;2022-09-09T09:41:38;12.40;74.30
45489;DHT22;31236;55.026;61.042;2022-09-09T09:52:34;12.60;73.50
45489;DHT22;31236;55.026;61.042;2022-09-09T09:55:04;12.80;73.40
45489;DHT22;31236;55.026;61.042;2022-09-09T09:57:34;12.90;72.90
45489;DHT22;31236;55.026;61.042;2022-09-09T10:00:11;13.00;71.90
45489;DHT22;31236;55.026;61.042;2022-09-09T10:05:59;13.20;70.20
45489;DHT22;31236;55.026;61.042;2022-09-09T10:11:39;13.20;68.80
45489;DHT22;31236;55.026;61.042;2022-09-09T10:30:12;12.50;73.30
45489;DHT22;31236;55.026;61.042;2022-09-09T10:32:43;12.50;73.50
45489;DHT22;31236;55.026;61.042;2022-09-09T10:38:23;12.50;72.40
45489;DHT22;31236;55.026;61.042;2022-09-09T10:57:33;12.90;72.80
45489;DHT22;31236;55.026;61.042;2022-09-09T11:02:52;13.00;72.70
45489;DHT22;31236;55.026;61.042;2022-09-09T11:05:55;13.10;72.90
45489;DHT22;31236;55.026;61.042;2022-09-09T11:19:39;13.40;72.40
45489;DHT22;31236;55.026;61.042;2022-09-09T11:21:41;13.40;72.60
45489;DHT22;31236;55.026;61.042;2022-09-09T11:24:43;13.40;72.90
45489;DHT22;31236;55.026;61.042;2022-09-09T11:26:41;13.40;73.00
45489;DHT22;31236;55.026;61.042;2022-09-09T11:40:26;14.10;70.50
45489;DHT22;31236;55.026;61.042;2022-09-09T11:45:50;13.80;68.50
45489;DHT22;31236;55.026;61.042;2022-09-09T11:51:07;13.80;69.10
45489;DHT22;31236;55.026;61.042;2022-09-09T12:02:27;14.30;68.60
45489;DHT22;31236;55.026;61.042;2022-09-09T12:05:16;14.20;67.80
45489;DHT22;31236;55.026;61.042;2022-09-09T12:10:38;14.40;67.40
45489;DHT22;31236;55.026;61.042;2022-09-09T12:15:56;14.50;65.90
45489;DHT22;31236;55.026;61.042;2022-09-09T12:18:26;14.60;66.10
45489;DHT22;31236;55.026;61.042;2022-09-09T12:37:33;14.40;65.10
45489;DHT22;31236;55.026;61.042;2022-09-09T12:40:33;14.30;63.80
45489;DHT22;31236;55.026;61.042;2022-09-09T12:42:33;14.20;63.70
45489;DHT22;31236;55.026;61.042;2022-09-09T12:45:03;14.10;64.00
45489;DHT22;31236;55.026;61.042;2022-09-09T12:50:23;14.00;65.10
45489;DHT22;31236;55.026;61.042;2022-09-09T12:55:49;14.10;65.90
45489;DHT22;31236;55.026;61.042;2022-09-09T12:58:12;14.10;65.40
45489;DHT22;31236;55.026;61.042;2022-09-09T13:00:48;14.10;65.60
45489;DHT22;31236;55.026;61.042;2022-09-09T13:08:51;14.20;64.10
45489;DHT22;31236;55.026;61.042;2022-09-09T13:11:21;14.10;63.80
45489;DHT22;31236;55.026;61.042;2022-09-09T13:13:51;14.10;62.90
45489;DHT22;31236;55.026;61.042;2022-09-09T13:16:22;14.10;63.30
45489;DHT22;31236;55.026;61.042;2022-09-09T13:18:52;14.00;63.80
45489;DHT22;31236;55.026;61.042;2022-09-09T13:21:42;14.00;64.60
45489;DHT22;31236;55.026;61.042;2022-09-09T13:32:39;13.90;65.60
45489;DHT22;31236;55.026;61.042;2022-09-09T13:35:23;13.90;65.90
45489;DHT22;31236;55.026;61.042;2022-09-09T13:37:39;13.80;65.70
45489;DHT22;31236;55.026;61.042;2022-09-09T13:42:57;13.60;66.50
45489;DHT22;31236;55.026;61.042;2022-09-09T13:45:26;13.50;66.70
45489;DHT22;31236;55.026;61.042;2022-09-09T13:47:56;13.40;66.40
45489;DHT22;31236;55.026;61.042;2022-09-09T13:50:26;13.20;66.70
45489;DHT22;31236;55.026;61.042;2022-09-09T13:52:55;13.10;66.60
45489;DHT22;31236;55.026;61.042;2022-09-09T14:01:02;12.80;67.10
45489;DHT22;31236;55.026;61.042;2022-09-09T14:03:32;12.70;67.30
45489;DHT22;31236;55.026;61.042;2022-09-09T14:06:01;12.70;67.50
45489;DHT22;31236;55.026;61.042;2022-09-09T14:08:30;12.60;67.70
45489;DHT22;31236;55.026;61.042;2022-09-09T14:11:19;12.50;67.80
45489;DHT22;31236;55.026;61.042;2022-09-09T14:13:48;12.50;67.90
45489;DHT22;31236;55.026;61.042;2022-09-09T14:16:18;12.40;68.10
45489;DHT22;31236;55.026;61.042;2022-09-09T14:18:48;12.40;68.30
45489;DHT22;31236;55.026;61.042;2022-09-09T14:21:17;12.30;68.50
45489;DHT22;31236;55.026;61.042;2022-09-09T14:23:47;12.30;68.70
45489;DHT22;31236;55.026;61.042;2022-09-09T14:26:16;12.20;68.80
45489;DHT22;31236;55.026;61.042;2022-09-09T14:28:47;12.20;69.00
45489;DHT22;31236;55.026;61.042;2022-09-09T14:31:18;12.00;69.20
45489;DHT22;31236;55.026;61.042;2022-09-09T14:33:47;11.90;69.50
45489;DHT22;31236;55.026;61.042;2022-09-09T14:36:17;11.90;69.80
45489;DHT22;31236;55.026;61.042;2022-09-09T14:38:46;11.70;70.10
45489;DHT22;31236;55.026;61.042;2022-09-09T14:41:17;11.60;70.50
45489;DHT22;31236;55.026;61.042;2022-09-09T14:43:48;11.50;70.90
45489;DHT22;31236;55.026;61.042;2022-09-09T14:46:18;11.30;71.30
45489;DHT22;31236;55.026;61.042;2022-09-09T14:48:47;11.20;71.80
45489;DHT22;31236;55.026;61.042;2022-09-09T14:51:18;11.10;72.00
45489;DHT22;31236;55.026;61.042;2022-09-09T14:53:50;11.00;72.30
45489;DHT22;31236;55.026;61.042;2022-09-09T14:56:20;10.90;72.50
45489;DHT22;31236;55.026;61.042;2022-09-09T14:58:50;10.80;72.80
45489;DHT22;31236;55.026;61.042;2022-09-09T15:01:21;10.70;73.00
45489;DHT22;31236;55.026;61.042;2022-09-09T15:03:51;10.60;73.40
45489;DHT22;31236;55.026;61.042;2022-09-09T15:06:20;10.60;73.50
45489;DHT22;31236;55.026;61.042;2022-09-09T15:08:50;10.50;73.60
45489;DHT22;31236;55.026;61.042;2022-09-09T15:11:20;10.50;73.80
45489;DHT22;31236;55.026;61.042;2022-09-09T15:13:50;10.50;73.80
45489;DHT22;31236;55.026;61.042;2022-09-09T15:16:21;10.50;73.90
45489;DHT22;31236;55.026;61.042;2022-09-09T15:18:51;10.50;74.10
45489;DHT22;31236;55.026;61.042;2022-09-09T15:21:21;10.50;74.20
45489;DHT22;31236;55.026;61.042;2022-09-09T15:23:51;10.50;74.30
45489;DHT22;31236;55.026;61.042;2022-09-09T15:26:20;10.50;74.30
45489;DHT22;31236;55.026;61.042;2022-09-09T15:28:50;10.50;74.40
45489;DHT22;31236;55.026;61.042;2022-09-09T15:31:20;10.60;74.50
45489;DHT22;31236;55.026;61.042;2022-09-09T15:33:51;10.60;74.50
45489;DHT22;31236;55.026;61.042;2022-09-09T15:39:10;10.70;74.70
45489;DHT22;31236;55.026;61.042;2022-09-09T15:41:42;10.70;74.70
45489;DHT22;31236;55.026;61.042;2022-09-09T15:44:11;10.60;75.00
45489;DHT22;31236;55.026;61.042;2022-09-09T15:47:15;10.50;75.50
45489;DHT22;31236;55.026;61.042;2022-09-09T15:52:01;10.50;75.70
45489;DHT22;31236;55.026;61.042;2022-09-09T15:54:31;10.50;75.20
45489;DHT22;31236;55.026;61.042;2022-09-09T15:57:01;10.50;75.70
45489;DHT22;31236;55.026;61.042;2022-09-09T15:59:31;10.50;75.70
45489;DHT22;31236;55.026;61.042;2022-09-09T16:02:00;10.40;76.10
45489;DHT22;31236;55.026;61.042;2022-09-09T16:04:29;10.40;76.50
45489;DHT22;31236;55.026;61.042;2022-09-09T16:07:02;10.30;76.80
45489;DHT22;31236;55.026;61.042;2022-09-09T16:09:31;10.30;77.10
45489;DHT22;31236;55.026;61.042;2022-09-09T16:12:00;10.30;77.00
45489;DHT22;31236;55.026;61.042;2022-09-09T16:14:31;10.40;76.80
45489;DHT22;31236;55.026;61.042;2022-09-09T16:17:02;10.40;76.70
45489;DHT22;31236;55.026;61.042;2022-09-09T16:19:31;10.40;76.60
45489;DHT22;31236;55.026;61.042;2022-09-09T16:22:01;10.40;76.60
45489;DHT22;31236;55.026;61.042;2022-09-09T16:24:31;10.40;76.70
45489;DHT22;31236;55.026;61.042;2022-09-09T16:27:00;10.40;76.80
45489;DHT22;31236;55.026;61.042;2022-09-09T16:29:29;10.40;76.90
45489;DHT22;31236;55.026;61.042;2022-09-09T16:31:58;10.30;77.10
45489;DHT22;31236;55.026;61.042;2022-09-09T16:34:28;10.20;77.20
45489;DHT22;31236;55.026;61.042;2022-09-09T16:36:57;10.10;77.40
45489;DHT22;31236;55.026;61.042;2022-09-09T16:39:26;10.10;77.50
45489;DHT22;31236;55.026;61.042;2022-09-09T16:41:55;10.00;77.70
45489;DHT22;31236;55.026;61.042;2022-09-09T16:44:25;9.90;77.90
45489;DHT22;31236;55.026;61.042;2022-09-09T16:46:54;9.90;78.10
45489;DHT22;31236;55.026;61.042;2022-09-09T16:49:23;9.70;78.80
45489;DHT22;31236;55.026;61.042;2022-09-09T16:51:53;9.70;78.40
45489;DHT22;31236;55.026;61.042;2022-09-09T16:54:23;9.60;78.60
45489;DHT22;31236;55.026;61.042;2022-09-09T16:56:53;9.50;78.80
45489;DHT22;31236;55.026;61.042;2022-09-09T16:59:22;9.40;78.90
45489;DHT22;31236;55.026;61.042;2022-09-09T17:01:53;9.30;79.00
45489;DHT22;31236;55.026;61.042;2022-09-09T17:04:22;9.30;78.80
45489;DHT22;31236;55.026;61.042;2022-09-09T17:06:52;9.20;79.30
45489;DHT22;31236;55.026;61.042;2022-09-09T17:09:22;9.10;79.50
45489;DHT22;31236;55.026;61.042;2022-09-09T17:11:53;9.00;80.00
45489;DHT22;31236;55.026;61.042;2022-09-09T17:14:24;8.80;80.20
45489;DHT22;31236;55.026;61.042;2022-09-09T17:16:53;8.80;80.20
45489;DHT22;31236;55.026;61.042;2022-09-09T17:19:24;8.80;80.20
45489;DHT22;31236;55.026;61.042;2022-09-09T17:21:53;8.80;80.00
45489;DHT22;31236;55.026;61.042;2022-09-09T17:24:42;8.80;79.80
45489;DHT22;31236;55.026;61.042;2022-09-09T17:27:12;8.80;79.60
45489;DHT22;31236;55.026;61.042;2022-09-09T17:29:41;8.80;79.60
45489;DHT22;31236;55.026;61.042;2022-09-09T17:32:11;8.70;79.60
45489;DHT22;31236;55.026;61.042;2022-09-09T17:37:12;8.50;79.90
45489;DHT22;31236;55.026;61.042;2022-09-09T17:39:41;8.50;79.90
45489;DHT22;31236;55.026;61.042;2022-09-09T17:42:11;8.50;79.90
45489;DHT22;31236;55.026;61.042;2022-09-09T17:44:41;8.50;80.00
45489;DHT22;31236;55.026;61.042;2022-09-09T17:47:10;8.50;80.00
45489;DHT22;31236;55.026;61.042;2022-09-09T17:49:39;8.60;80.00
45489;DHT22;31236;55.026;61.042;2022-09-09T17:52:08;8.60;80.00
45489;DHT22;31236;55.026;61.042;2022-09-09T17:54:37;8.60;80.00
45489;DHT22;31236;55.026;61.042;2022-09-09T17:57:07;8.60;80.20
45489;DHT22;31236;55.026;61.042;2022-09-09T17:59:36;8.50;80.10
45489;DHT22;31236;55.026;61.042;2022-09-09T18:02:08;8.50;80.50
45489;DHT22;31236;55.026;61.042;2022-09-09T18:04:37;8.50;80.70
45489;DHT22;31236;55.026;61.042;2022-09-09T18:07:08;8.50;80.70
45489;DHT22;31236;55.026;61.042;2022-09-09T18:09:37;8.50;80.70
45489;DHT22;31236;55.026;61.042;2022-09-09T18:12:08;8.50;80.80
45489;DHT22;31236;55.026;61.042;2022-09-09T18:14:37;8.60;80.80
45489;DHT22;31236;55.026;61.042;2022-09-09T18:17:07;8.50;80.90
45489;DHT22;31236;55.026;61.042;2022-09-09T18:19:36;8.50;81.20
45489;DHT22;31236;55.026;61.042;2022-09-09T18:22:05;8.50;81.40
45489;DHT22;31236;55.026;61.042;2022-09-09T18:24:34;8.50;81.30
45489;DHT22;31236;55.026;61.042;2022-09-09T18:27:03;8.50;81.30
45489;DHT22;31236;55.026;61.042;2022-09-09T18:29:33;8.50;81.40
45489;DHT22;31236;55.026;61.042;2022-09-09T18:32:02;8.50;81.60
45489;DHT22;31236;55.026;61.042;2022-09-09T18:34:31;8.50;81.60
45489;DHT22;31236;55.026;61.042;2022-09-09T18:37:00;8.50;81.50
45489;DHT22;31236;55.026;61.042;2022-09-09T18:39:30;8.60;81.30
45489;DHT22;31236;55.026;61.042;2022-09-09T18:41:59;8.60;81.30
45489;DHT22;31236;55.026;61.042;2022-09-09T18:44:30;8.50;81.30
45489;DHT22;31236;55.026;61.042;2022-09-09T18:46:58;8.40;81.60
45489;DHT22;31236;55.026;61.042;2022-09-09T18:49:28;8.40;81.70
45489;DHT22;31236;55.026;61.042;2022-09-09T18:51:58;8.40;82.00
45489;DHT22;31236;55.026;61.042;2022-09-09T18:54:29;8.40;81.80
45489;DHT22;31236;55.026;61.042;2022-09-09T18:57:00;8.50;81.80
45489;DHT22;31236;55.026;61.042;2022-09-09T18:59:29;8.50;81.70
45489;DHT22;31236;55.026;61.042;2022-09-09T19:01:59;8.50;81.60
45489;DHT22;31236;55.026;61.042;2022-09-09T19:04:29;8.40;81.90
45489;DHT22;31236;55.026;61.042;2022-09-09T19:06:58;8.30;82.40
45489;DHT22;31236;55.026;61.042;2022-09-09T19:09:28;8.30;82.40
45489;DHT22;31236;55.026;61.042;2022-09-09T19:11:59;8.30;82.30
45489;DHT22;31236;55.026;61.042;2022-09-09T19:14:28;8.30;82.50
45489;DHT22;31236;55.026;61.042;2022-09-09T19:16:58;8.30;82.50
45489;DHT22;31236;55.026;61.042;2022-09-09T19:19:28;8.30;82.30
45489;DHT22;31236;55.026;61.042;2022-09-09T19:21:58;8.40;82.20
45489;DHT22;31236;55.026;61.042;2022-09-09T19:24:28;8.40;82.10
45489;DHT22;31236;55.026;61.042;2022-09-09T19:26:59;8.30;82.20
45489;DHT22;31236;55.026;61.042;2022-09-09T19:29:29;8.30;82.30
45489;DHT22;31236;55.026;61.042;2022-09-09T19:31:59;8.40;82.20
45489;DHT22;31236;55.026;61.042;2022-09-09T19:39:48;8.30;82.60
45489;DHT22;31236;55.026;61.042;2022-09-09T19:42:18;8.30;82.60
45489;DHT22;31236;55.026;61.042;2022-09-09T19:44:47;8.30;82.50
45489;DHT22;31236;55.026;61.042;2022-09-09T19:47:17;8.30;82.50
45489;DHT22;31236;55.026;61.042;2022-09-09T19:49:46;8.30;82.70
45489;DHT22;31236;55.026;61.042;2022-09-09T19:52:17;8.30;82.80
45489;DHT22;31236;55.026;61.042;2022-09-09T19:57:17;8.20;83.10
45489;DHT22;31236;55.026;61.042;2022-09-09T19:59:47;8.20;83.20
45489;DHT22;31236;55.026;61.042;2022-09-09T20:02:16;8.20;83.10
45489;DHT22;31236;55.026;61.042;2022-09-09T20:04:46;8.30;83.10
45489;DHT22;31236;55.026;61.042;2022-09-09T20:07:15;8.30;82.90
45489;DHT22;31236;55.026;61.042;2022-09-09T20:09:45;8.30;83.00
45489;DHT22;31236;55.026;61.042;2022-09-09T20:12:14;8.30;83.00
45489;DHT22;31236;55.026;61.042;2022-09-09T20:14:44;8.30;83.10
45489;DHT22;31236;55.026;61.042;2022-09-09T20:17:13;8.20;83.30
45489;DHT22;31236;55.026;61.042;2022-09-09T20:22:14;8.10;83.90
45489;DHT22;31236;55.026;61.042;2022-09-09T20:24:43;8.10;83.90
45489;DHT22;31236;55.026;61.042;2022-09-09T20:27:15;8.10;83.90
45489;DHT22;31236;55.026;61.042;2022-09-09T20:29:44;8.10;83.80
45489;DHT22;31236;55.026;61.042;2022-09-09T20:32:13;8.10;83.70
45489;DHT22;31236;55.026;61.042;2022-09-09T20:34:42;8.10;83.70
45489;DHT22;31236;55.026;61.042;2022-09-09T20:37:12;8.10;83.60
45489;DHT22;31236;55.026;61.042;2022-09-09T20:39:42;8.10;83.40
45489;DHT22;31236;55.026;61.042;2022-09-09T20:42:12;8.10;83.60
45489;DHT22;31236;55.026;61.042;2022-09-09T20:44:43;8.10;83.60
45489;DHT22;31236;55.026;61.042;2022-09-09T20:47:12;8.00;83.40
45489;DHT22;31236;55.026;61.042;2022-09-09T20:52:12;8.00;83.40
45489;DHT22;31236;55.026;61.042;2022-09-09T20:54:44;7.90;83.40
45489;DHT22;31236;55.026;61.042;2022-09-09T20:57:13;7.90;83.60
45489;DHT22;31236;55.026;61.042;2022-09-09T21:02:35;7.90;83.90
45489;DHT22;31236;55.026;61.042;2022-09-09T21:05:05;7.80;83.80
45489;DHT22;31236;55.026;61.042;2022-09-09T21:07:34;7.80;84.00
45489;DHT22;31236;55.026;61.042;2022-09-09T21:10:04;7.80;84.00
45489;DHT22;31236;55.026;61.042;2022-09-09T21:12:33;7.80;84.30
45489;DHT22;31236;55.026;61.042;2022-09-09T21:15:03;7.70;84.50
45489;DHT22;31236;55.026;61.042;2022-09-09T21:17:54;7.70;84.70
45489;DHT22;31236;55.026;61.042;2022-09-09T21:20:23;7.60;84.50
45489;DHT22;31236;55.026;61.042;2022-09-09T21:22:52;7.40;85.20
45489;DHT22;31236;55.026;61.042;2022-09-09T21:25:22;7.40;85.60
45489;DHT22;31236;55.026;61.042;2022-09-09T21:30:45;7.50;85.10
45489;DHT22;31236;55.026;61.042;2022-09-09T21:33:13;7.50;84.70
45489;DHT22;31236;55.026;61.042;2022-09-09T21:35:43;7.60;84.70
45489;DHT22;31236;55.026;61.042;2022-09-09T21:44:12;7.40;85.10